createdAt,value
2022-11-14T00:01:44.545Z,2.80
2022-11-14T00:04:31.979Z,2.80
2022-11-14T00:07:19.402Z,2.70
2022-11-14T00:10:07.345Z,2.70
2022-11-14T00:12:54.470Z,2.70
2022-11-14T00:15:41.765Z,2.70
2022-11-14T00:18:30.553Z,2.80
2022-11-14T00:21:17.883Z,2.70
2022-11-14T00:24:05.504Z,2.70
2022-11-14T00:26:52.668Z,2.70
2022-11-14T00:29:39.970Z,2.70
2022-11-14T00:32:27.073Z,2.70
2022-11-14T00:35:15.745Z,2.80
2022-11-14T00:38:03.569Z,2.70
2022-11-14T00:40:51.095Z,2.70
2022-11-14T00:43:38.018Z,2.70
2022-11-14T00:46:25.241Z,2.70
2022-11-14T00:49:12.356Z,2.60
2022-11-14T00:52:19.011Z,2.60
2022-11-14T00:55:07.111Z,2.60
2022-11-14T00:57:54.262Z,2.50
2022-11-14T01:00:41.712Z,2.80
2022-11-14T01:03:28.946Z,2.50
2022-11-14T01:06:16.726Z,2.50
2022-11-14T01:09:05.717Z,2.50
2022-11-14T01:11:52.756Z,2.50
2022-11-14T01:14:41.251Z,2.50
2022-11-14T01:17:28.792Z,2.50
2022-11-14T01:20:16.195Z,2.50
2022-11-14T01:23:03.274Z,2.60
2022-11-14T01:25:52.056Z,2.60
2022-11-14T01:28:40.575Z,2.50
2022-11-14T01:31:27.483Z,2.50
2022-11-14T01:34:14.698Z,2.40
2022-11-14T01:37:02.178Z,2.50
2022-11-14T01:39:49.316Z,2.50
2022-11-14T01:42:37.960Z,2.50
2022-11-14T01:45:51.796Z,2.50
2022-11-14T01:48:42.955Z,2.60
2022-11-14T01:51:32.665Z,2.70
2022-11-14T01:54:24.238Z,2.70
2022-11-14T01:57:12.804Z,2.60
2022-11-14T02:00:05.597Z,2.60
2022-11-14T02:02:53.326Z,2.60
2022-11-14T02:05:40.878Z,2.50
2022-11-14T02:08:28.404Z,2.50
2022-11-14T02:11:15.881Z,2.60
2022-11-14T02:14:03.306Z,2.50
2022-11-14T02:17:14.842Z,2.60
2022-11-14T02:20:07.877Z,2.60
2022-11-14T02:22:55.476Z,2.60
2022-11-14T02:25:43.143Z,2.60
2022-11-14T02:28:30.517Z,2.50
2022-11-14T02:31:17.950Z,2.50
2022-11-14T02:34:05.302Z,2.50
2022-11-14T02:36:54.115Z,2.50
2022-11-14T02:39:41.615Z,2.40
2022-11-14T02:42:28.884Z,2.40
2022-11-14T02:45:16.457Z,2.30
2022-11-14T02:48:03.890Z,2.20
2022-11-14T02:50:51.345Z,2.30
2022-11-14T02:53:40.186Z,2.30
2022-11-14T03:07:44.518Z,2.20
2022-11-14T03:10:32.756Z,2.00
2022-11-14T03:13:20.236Z,2.00
2022-11-14T03:16:08.618Z,2.00
2022-11-14T03:18:55.962Z,2.00
2022-11-14T03:21:43.396Z,2.00
2022-11-14T03:24:30.539Z,1.90
2022-11-14T03:27:19.307Z,1.90
2022-11-14T03:30:07.386Z,2.00
2022-11-14T03:32:55.909Z,2.00
2022-11-14T03:35:44.447Z,1.90
2022-11-14T03:38:32.487Z,1.90
2022-11-14T03:41:19.939Z,1.90
2022-11-14T03:44:08.423Z,1.80
2022-11-14T03:46:55.498Z,1.90
2022-11-14T03:49:45.159Z,1.80
2022-11-14T03:52:32.617Z,1.80
2022-11-14T03:55:20.150Z,1.70
2022-11-14T03:58:07.272Z,1.70
2022-11-14T04:00:56.723Z,1.70
2022-11-14T04:03:44.013Z,1.70
2022-11-14T04:06:31.362Z,1.70
2022-11-14T04:09:19.307Z,1.60
2022-11-14T04:12:10.046Z,1.60
2022-11-14T04:14:59.928Z,1.60
2022-11-14T04:17:48.868Z,1.70
2022-11-14T04:20:36.367Z,1.60
2022-11-14T04:23:23.705Z,1.60
2022-11-14T04:26:11.097Z,1.60
2022-11-14T04:28:58.273Z,1.60
2022-11-14T04:31:45.721Z,1.70
2022-11-14T04:34:34.439Z,1.70
2022-11-14T04:37:21.546Z,1.70
2022-11-14T04:40:10.509Z,1.80
2022-11-14T04:42:58.698Z,1.80
2022-11-14T04:45:46.107Z,1.80
2022-11-14T04:48:33.270Z,1.80
2022-11-14T04:51:21.981Z,1.80
2022-11-14T04:54:09.410Z,1.80
2022-11-14T04:56:56.492Z,1.70
2022-11-14T04:59:43.593Z,1.70
2022-11-14T05:02:33.254Z,1.70
2022-11-14T05:05:20.665Z,1.80
2022-11-14T05:08:09.211Z,1.80
2022-11-14T05:10:56.271Z,1.80
2022-11-14T05:13:43.684Z,1.80
2022-11-14T05:16:31.235Z,1.90
2022-11-14T05:19:18.402Z,1.90
2022-11-14T05:22:05.779Z,1.90
2022-11-14T05:24:54.369Z,1.90
2022-11-14T05:27:41.612Z,1.90
2022-11-14T05:30:28.931Z,1.90
2022-11-14T05:33:16.317Z,2.00
2022-11-14T05:36:04.656Z,2.00
2022-11-14T05:38:52.133Z,2.00
2022-11-14T05:41:41.020Z,2.00
2022-11-14T05:44:28.281Z,2.00
2022-11-14T05:47:15.612Z,2.00
2022-11-14T05:50:02.956Z,2.00
2022-11-14T05:52:50.329Z,1.90
2022-11-14T05:55:37.857Z,1.90
2022-11-14T05:58:26.537Z,1.90
2022-11-14T06:01:16.854Z,1.90
2022-11-14T06:04:07.750Z,1.90
2022-11-14T06:06:55.161Z,1.90
2022-11-14T06:09:42.125Z,1.80
2022-11-14T06:12:29.672Z,1.80
2022-11-14T06:15:18.834Z,1.80
2022-11-14T06:18:06.055Z,1.90
2022-11-14T06:20:53.647Z,1.90
2022-11-14T06:23:41.102Z,1.90
2022-11-14T06:26:30.722Z,1.90
2022-11-14T06:29:17.940Z,1.90
2022-11-14T06:32:07.131Z,1.80
2022-11-14T06:34:54.280Z,1.90
2022-11-14T06:37:41.199Z,1.90
2022-11-14T06:40:28.615Z,1.90
2022-11-14T06:43:15.754Z,1.90
2022-11-14T06:46:03.232Z,1.90
2022-11-14T06:48:52.686Z,1.90
2022-11-14T06:51:39.652Z,1.90
2022-11-14T06:54:26.926Z,1.90
2022-11-14T06:57:14.348Z,2.00
2022-11-14T07:00:01.673Z,2.00
2022-11-14T07:02:49.429Z,2.00
2022-11-14T07:05:38.162Z,2.00
2022-11-14T07:08:25.406Z,2.00
2022-11-14T07:11:23.064Z,2.00
2022-11-14T07:14:11.045Z,2.00
2022-11-14T07:16:59.234Z,1.90
2022-11-14T07:19:46.503Z,1.90
2022-11-14T07:22:35.492Z,1.90
2022-11-14T07:25:22.908Z,1.90
2022-11-14T07:28:10.327Z,1.80
2022-11-14T07:30:57.856Z,1.80
2022-11-14T07:33:46.308Z,1.80
2022-11-14T07:36:33.824Z,1.90
2022-11-14T07:39:22.594Z,1.90
2022-11-14T07:42:09.901Z,1.90
2022-11-14T07:44:57.126Z,1.90
2022-11-14T07:47:44.514Z,1.90
2022-11-14T07:50:32.183Z,1.90
2022-11-14T07:53:20.367Z,1.90
2022-11-14T07:56:10.947Z,1.90
2022-11-14T07:58:59.578Z,1.90
2022-11-14T08:01:46.842Z,1.90
2022-11-14T08:04:34.059Z,2.00
2022-11-14T08:07:21.192Z,1.90
2022-11-14T08:10:11.547Z,1.90
2022-11-14T08:13:30.202Z,1.90
2022-11-14T08:16:13.780Z,2.00
2022-11-14T08:19:01.160Z,2.00
2022-11-14T08:21:49.036Z,2.00
2022-11-14T08:24:36.151Z,2.10
2022-11-14T08:27:23.769Z,2.20
2022-11-14T08:30:15.275Z,2.20
2022-11-14T08:33:04.070Z,2.20
2022-11-14T08:35:51.837Z,2.20
2022-11-14T08:38:39.045Z,2.20
2022-11-14T08:41:26.569Z,2.20
2022-11-14T08:44:13.948Z,2.10
2022-11-14T08:47:04.113Z,2.10
2022-11-14T08:49:52.211Z,2.00
2022-11-14T08:52:39.611Z,2.10
2022-11-14T08:55:27.213Z,2.20
2022-11-14T08:58:14.411Z,2.20
2022-11-14T09:01:03.004Z,2.20
2022-11-14T09:03:56.874Z,2.20
2022-11-14T09:06:47.363Z,2.10
2022-11-14T09:09:34.836Z,2.10
2022-11-14T09:12:22.023Z,2.00
2022-11-14T09:15:10.099Z,2.10
2022-11-14T09:17:58.833Z,2.10
2022-11-14T09:20:47.783Z,2.10
2022-11-14T09:23:35.561Z,2.20
2022-11-14T09:26:22.671Z,2.30
2022-11-14T09:29:10.093Z,2.40
2022-11-14T09:31:57.471Z,2.40
2022-11-14T09:34:45.756Z,2.40
2022-11-14T09:37:34.650Z,2.40
2022-11-14T09:40:22.071Z,2.40
2022-11-14T09:43:29.492Z,2.40
2022-11-14T09:46:22.831Z,2.40
2022-11-14T09:49:17.572Z,2.40
2022-11-14T09:52:14.791Z,2.40
2022-11-14T09:55:12.179Z,2.50
2022-11-14T09:58:00.231Z,2.50
2022-11-14T10:00:52.831Z,2.40
2022-11-14T10:03:52.509Z,2.40
2022-11-14T10:06:47.833Z,2.40
2022-11-14T10:09:54.106Z,2.40
2022-11-14T10:12:53.350Z,2.50
2022-11-14T10:15:47.581Z,2.50
2022-11-14T10:18:49.947Z,2.60
2022-11-14T10:21:51.618Z,2.70
2022-11-14T10:24:56.450Z,2.70
2022-11-14T10:28:04.851Z,2.70
2022-11-14T10:31:00.288Z,2.70
2022-11-14T10:33:57.662Z,2.70
2022-11-14T10:36:57.003Z,2.70
2022-11-14T10:39:49.234Z,2.70
2022-11-14T10:42:39.139Z,2.70
2022-11-14T10:45:32.142Z,2.80
2022-11-14T10:48:27.245Z,2.80
2022-11-14T10:51:21.063Z,2.80
2022-11-14T10:54:19.229Z,2.80
2022-11-14T10:57:17.311Z,2.80
2022-11-14T11:00:12.605Z,2.80
2022-11-14T11:03:01.065Z,2.80
2022-11-14T11:05:51.647Z,2.80
2022-11-14T11:09:01.161Z,2.80
2022-11-14T11:11:56.872Z,2.80
2022-11-14T11:14:44.882Z,2.90
2022-11-14T11:17:38.592Z,2.80
2022-11-14T11:20:34.986Z,2.80
2022-11-14T11:23:27.685Z,2.80
2022-11-14T11:26:21.230Z,2.80
2022-11-14T11:29:16.329Z,2.80
2022-11-14T11:32:03.765Z,2.80
2022-11-14T11:34:52.560Z,2.80
2022-11-14T11:37:45.412Z,2.80
2022-11-14T11:40:32.790Z,2.80
2022-11-14T11:43:38.873Z,2.90
2022-11-14T11:46:33.965Z,2.90
2022-11-14T11:49:28.155Z,2.90
2022-11-14T11:52:22.648Z,2.90
2022-11-14T11:55:21.702Z,2.90
2022-11-14T11:58:22.366Z,2.90
2022-11-14T12:01:13.630Z,3.00
2022-11-14T12:04:03.878Z,2.90
2022-11-14T12:06:59.909Z,2.90
2022-11-14T12:10:09.864Z,2.80
2022-11-14T12:13:19.514Z,2.80
2022-11-14T12:16:19.762Z,2.80
2022-11-14T12:19:35.704Z,2.90
2022-11-14T12:22:37.053Z,2.90
2022-11-14T12:25:39.679Z,2.80
2022-11-14T12:28:59.245Z,2.80
2022-11-14T12:31:48.013Z,2.80
2022-11-14T12:34:39.385Z,2.70
2022-11-14T12:37:33.341Z,2.80
2022-11-14T12:40:28.898Z,2.80
2022-11-14T12:43:37.426Z,2.90
2022-11-14T12:46:24.590Z,2.90
2022-11-14T12:49:39.608Z,2.90
2022-11-14T12:52:48.680Z,2.80
2022-11-14T12:55:58.102Z,2.80
2022-11-14T12:59:09.240Z,2.70
2022-11-14T13:02:25.082Z,2.70
2022-11-14T13:05:49.848Z,2.70
2022-11-14T13:08:56.475Z,2.80
2022-11-14T13:12:02.338Z,2.80
2022-11-14T13:15:13.136Z,2.80
2022-11-14T13:18:33.250Z,2.80
2022-11-14T13:21:45.399Z,2.80
2022-11-14T13:25:06.094Z,2.80
2022-11-14T13:28:16.784Z,2.80
2022-11-14T13:31:20.798Z,2.80
2022-11-14T13:34:40.464Z,2.80
2022-11-14T13:37:59.756Z,2.80
2022-11-14T13:40:54.539Z,2.90
2022-11-14T13:43:57.277Z,2.90
2022-11-14T13:47:06.030Z,2.80
2022-11-14T13:50:01.164Z,2.80
2022-11-14T13:52:50.345Z,2.90
2022-11-14T13:55:52.677Z,2.90
2022-11-14T13:59:08.594Z,2.80
2022-11-14T14:02:20.709Z,2.90
2022-11-14T14:05:20.969Z,2.90
2022-11-14T14:08:28.225Z,2.90
2022-11-14T14:11:37.751Z,2.90
2022-11-14T14:15:04.633Z,2.90
2022-11-14T14:18:06.737Z,2.80
2022-11-14T14:21:01.828Z,2.80
2022-11-14T14:23:57.771Z,2.80
2022-11-14T14:26:58.154Z,2.80
2022-11-14T14:29:54.033Z,2.90
2022-11-14T14:32:41.791Z,3.00
2022-11-14T14:35:38.905Z,3.00
2022-11-14T14:38:29.831Z,3.00
2022-11-14T14:41:21.367Z,3.00
2022-11-14T14:44:21.577Z,3.00
2022-11-14T14:47:18.787Z,2.90
2022-11-14T14:50:14.412Z,2.90
2022-11-14T14:53:04.952Z,2.90
2022-11-14T14:55:55.381Z,2.90
2022-11-14T14:58:42.766Z,2.90
2022-11-14T15:01:34.845Z,2.80
2022-11-14T15:04:24.615Z,2.90
2022-11-14T15:07:20.422Z,2.90
2022-11-14T15:10:10.115Z,2.80
2022-11-14T15:12:58.216Z,2.80
2022-11-14T15:15:45.861Z,2.80
2022-11-14T15:18:34.397Z,2.90
2022-11-14T15:21:31.495Z,2.90
2022-11-14T15:24:20.576Z,2.90
2022-11-14T15:27:15.078Z,2.80
2022-11-14T15:30:05.375Z,2.80
2022-11-14T15:32:53.840Z,2.70
2022-11-14T15:35:41.932Z,2.70
2022-11-14T15:38:45.019Z,2.70
2022-11-14T15:41:32.818Z,2.70
2022-11-14T15:44:35.223Z,2.80
2022-11-14T15:47:26.980Z,2.80
2022-11-14T15:50:28.894Z,2.80
2022-11-14T15:53:24.824Z,2.80
2022-11-14T15:56:14.149Z,2.80
2022-11-14T15:59:01.533Z,2.80
2022-11-14T16:01:53.183Z,2.70
2022-11-14T16:04:44.575Z,2.80
2022-11-14T16:07:34.918Z,2.70
2022-11-14T16:10:24.307Z,2.70
2022-11-14T16:13:12.334Z,2.80
2022-11-14T16:15:59.755Z,2.80
2022-11-14T16:18:48.245Z,2.80
2022-11-14T16:21:36.071Z,2.90
2022-11-14T16:24:26.666Z,2.90
2022-11-14T16:27:15.782Z,2.90
2022-11-14T16:30:02.940Z,2.90
2022-11-14T16:32:51.674Z,2.90
2022-11-14T16:35:40.966Z,2.90
2022-11-14T16:38:28.608Z,2.90
2022-11-14T16:41:17.126Z,2.90
2022-11-14T16:44:04.645Z,2.90
2022-11-14T16:46:52.032Z,2.90
2022-11-14T16:49:39.644Z,3.00
2022-11-14T16:52:28.340Z,3.00
2022-11-14T16:55:15.436Z,3.00
2022-11-14T16:58:02.694Z,3.00
2022-11-14T17:00:50.028Z,3.00
2022-11-14T17:03:37.116Z,3.00
2022-11-14T17:06:24.685Z,3.00
2022-11-14T17:09:15.547Z,3.00
2022-11-14T17:12:02.740Z,3.00
2022-11-14T17:14:49.824Z,3.00
2022-11-14T17:17:37.163Z,3.10
2022-11-14T17:20:24.595Z,3.10
2022-11-14T17:23:11.541Z,3.10
2022-11-14T17:26:04.691Z,3.00
2022-11-14T17:28:52.219Z,3.00
2022-11-14T17:31:45.825Z,3.00
2022-11-14T17:34:34.305Z,3.00
2022-11-14T17:37:23.425Z,3.00
2022-11-14T17:40:15.470Z,3.00
2022-11-14T17:43:04.654Z,3.00
2022-11-14T17:45:56.401Z,3.00
2022-11-14T17:48:43.862Z,3.00
2022-11-14T17:51:31.422Z,3.00
2022-11-14T17:54:19.073Z,3.00
2022-11-14T17:57:06.765Z,3.00
2022-11-14T17:59:55.265Z,3.00
2022-11-14T18:02:42.468Z,3.00
2022-11-14T18:05:30.118Z,2.90
2022-11-14T18:08:17.369Z,2.90
2022-11-14T18:11:05.776Z,3.00
2022-11-14T18:13:56.335Z,3.00
2022-11-14T18:17:11.354Z,3.00
2022-11-14T18:19:52.303Z,2.90
2022-11-14T18:22:39.791Z,3.00
2022-11-14T18:25:27.123Z,3.00
2022-11-14T18:28:14.664Z,3.00
2022-11-14T18:31:03.665Z,3.00
2022-11-14T18:33:52.970Z,3.00
2022-11-14T18:36:40.519Z,3.10
2022-11-14T18:39:29.222Z,3.00
2022-11-14T18:42:16.660Z,3.00
2022-11-14T18:45:05.783Z,3.00
2022-11-14T18:47:53.423Z,3.00
2022-11-14T18:50:42.468Z,3.00
2022-11-14T18:53:33.695Z,2.90
2022-11-14T18:56:22.506Z,2.90
2022-11-14T18:59:10.282Z,2.90
2022-11-14T19:01:58.510Z,3.00
2022-11-14T19:04:45.694Z,2.90
2022-11-14T19:07:34.192Z,3.00
2022-11-14T19:10:21.341Z,3.00
2022-11-14T19:13:08.638Z,3.00
2022-11-14T19:15:55.921Z,3.00
2022-11-14T19:18:42.984Z,3.00
2022-11-14T19:21:30.690Z,3.10
2022-11-14T19:24:19.447Z,3.00
2022-11-14T19:27:06.536Z,3.00
2022-11-14T19:29:53.602Z,3.00
2022-11-14T19:32:41.026Z,3.00
2022-11-14T19:35:27.838Z,3.00
2022-11-14T19:38:15.602Z,3.00
2022-11-14T19:41:09.062Z,3.00
2022-11-14T19:43:57.151Z,3.00
2022-11-14T19:46:47.479Z,3.00
2022-11-14T19:49:35.424Z,2.90
2022-11-14T19:52:22.858Z,2.90
2022-11-14T19:55:10.145Z,2.90
2022-11-14T19:58:00.429Z,2.90
2022-11-14T20:00:47.978Z,2.90
2022-11-14T20:03:35.490Z,2.90
2022-11-14T20:06:25.137Z,2.90
2022-11-14T20:09:13.015Z,2.90
2022-11-14T20:12:00.448Z,2.80
2022-11-14T20:14:49.084Z,2.80
2022-11-14T20:17:37.279Z,2.80
2022-11-14T20:20:24.335Z,2.80
2022-11-14T20:23:11.928Z,2.80
2022-11-14T20:25:59.441Z,2.90
2022-11-14T20:28:48.271Z,2.90
2022-11-14T20:31:37.072Z,2.80
2022-11-14T20:34:24.654Z,2.90
2022-11-14T20:37:12.277Z,2.90
2022-11-14T20:39:59.614Z,2.90
2022-11-14T20:42:49.592Z,2.80
2022-11-14T20:45:37.216Z,2.80
2022-11-14T20:48:26.605Z,2.90
2022-11-14T20:51:15.695Z,2.90
2022-11-14T20:54:03.133Z,2.90
2022-11-14T20:56:51.003Z,3.00
2022-11-14T20:59:38.643Z,3.00
2022-11-14T21:02:25.926Z,2.90
2022-11-14T21:05:14.616Z,3.00
2022-11-14T21:08:02.117Z,3.00
2022-11-14T21:10:51.356Z,3.00
2022-11-14T21:13:58.976Z,3.00
2022-11-14T21:16:46.083Z,3.00
2022-11-14T21:19:33.284Z,3.10
2022-11-14T21:22:25.643Z,3.00
2022-11-14T21:25:12.566Z,3.00
2022-11-14T21:27:59.319Z,3.00
2022-11-14T21:30:47.384Z,3.00
2022-11-14T21:33:34.726Z,3.00
2022-11-14T21:36:43.683Z,3.00
2022-11-14T21:39:31.224Z,3.10
2022-11-14T21:42:18.803Z,3.10
2022-11-14T21:45:07.346Z,3.10
2022-11-14T21:47:54.402Z,3.10
2022-11-14T21:50:41.559Z,3.10
2022-11-14T21:53:29.608Z,3.10
2022-11-14T21:56:19.814Z,3.10
2022-11-14T21:59:16.982Z,3.10
2022-11-14T22:02:21.694Z,3.10
2022-11-14T22:05:09.426Z,3.10
2022-11-14T22:07:56.598Z,3.10
2022-11-14T22:10:43.965Z,3.10
2022-11-14T22:13:33.499Z,3.10
2022-11-14T22:16:21.045Z,3.10
2022-11-14T22:19:08.361Z,3.10
2022-11-14T22:21:55.713Z,3.20
2022-11-14T22:24:42.817Z,3.20
2022-11-14T22:27:30.241Z,3.20
2022-11-14T22:30:19.264Z,3.20
2022-11-14T22:33:06.455Z,3.20
2022-11-14T22:35:53.581Z,3.20
2022-11-14T22:38:41.339Z,3.20
2022-11-14T22:41:32.571Z,3.20
2022-11-14T22:44:20.444Z,3.30
2022-11-14T22:47:09.063Z,3.20
2022-11-14T22:49:56.441Z,3.20
2022-11-14T22:52:43.810Z,3.20
2022-11-14T22:55:31.176Z,3.20
2022-11-14T22:58:19.326Z,3.20
2022-11-14T23:01:12.705Z,3.20
2022-11-14T23:04:03.182Z,3.10
2022-11-14T23:06:50.232Z,3.20
2022-11-14T23:09:37.516Z,3.10
2022-11-14T23:12:24.688Z,3.10
2022-11-14T23:15:12.164Z,3.10
2022-11-14T23:18:00.618Z,3.20
2022-11-14T23:20:49.426Z,3.10
2022-11-14T23:23:36.094Z,3.10
2022-11-14T23:26:24.254Z,3.10
2022-11-14T23:29:14.495Z,3.10
2022-11-14T23:32:01.329Z,3.10
2022-11-14T23:34:48.380Z,3.10
2022-11-14T23:37:37.190Z,3.10
2022-11-14T23:40:24.307Z,3.10
2022-11-14T23:43:11.338Z,3.10
2022-11-14T23:45:58.833Z,3.10
2022-11-14T23:48:46.205Z,3.20
2022-11-14T23:51:33.959Z,3.20
2022-11-14T23:54:22.673Z,3.20
2022-11-14T23:57:09.609Z,3.10
2022-11-14T23:59:56.801Z,3.20
